Time;durP1;ratioP1;P1;durP2;ratioP2;P2;SDS_P1;SDS_P2;PMS_P1;PMS_P2;Temp;Humidity;BMP_temperature;BMP_pressure;BME280_temperature;BME280_humidity;BME280_pressure;Samples;Min_cycle;Max_cycle;Signal;HPM_P1;HPM_P2
2022/05/15 06:33:17;;;;;;;72.82;61.90;;;16.50;78.30;;;;;;6280703;22;20209;-90
2022/05/15 07:10:44;;;;;;;4.80;3.70;;;18.00;54.10;;;;;;6221737;22;20428;-83
2022/05/15 07:16:22;;;;;;;5.35;3.95;;;18.20;52.70;;;;;;6230095;23;20186;-87
2022/05/15 07:22:12;;;;;;;10.50;3.72;;;18.40;52.50;;;;;;6230398;23;20137;-85
2022/05/15 07:28:54;;;;;;;5.18;3.53;;;18.60;49.50;;;;;;6234905;23;20213;-85
2022/05/15 07:38:20;;;;;;;6.63;3.50;;;18.90;48.00;;;;;;6230808;23;20144;-85
2022/05/15 07:40:48;;;;;;;8.63;3.63;;;18.90;47.80;;;;;;6225285;22;20274;-85
2022/05/15 07:43:17;;;;;;;5.60;3.78;;;18.90;48.30;;;;;;6200376;23;20178;-85
2022/05/15 07:45:52;;;;;;;6.20;3.50;;;19.00;49.50;;;;;;6201008;23;20174;-86
2022/05/15 07:52:04;;;;;;;4.25;3.08;;;19.20;41.90;;;;;;6200154;23;20594;-86
2022/05/15 07:58:15;;;;;;;7.38;3.45;;;19.40;43.50;;;;;;6200908;23;20209;-86
2022/05/15 08:14:30;;;;;;;4.47;2.88;;;19.80;35.40;;;;;;6200861;23;20301;-85
2022/05/15 08:17:12;;;;;;;4.63;2.88;;;20.10;35.50;;;;;;6107468;23;20189;-87
2022/05/15 08:26:52;;;;;;;5.25;3.33;;;20.50;32.40;;;;;;6197486;23;20204;-89
2022/05/15 08:29:21;;;;;;;3.47;2.80;;;20.70;32.60;;;;;;6195605;23;20178;-86
2022/05/15 08:32:33;;;;;;;5.60;2.95;;;20.90;30.10;;;;;;6194109;23;20214;-88
2022/05/15 08:38:24;;;;;;;3.85;3.10;;;21.40;29.10;;;;;;6196943;23;20166;-83
2022/05/15 08:41:16;;;;;;;4.32;3.00;;;21.60;30.30;;;;;;6202357;23;20209;-82
2022/05/15 08:43:49;;;;;;;6.03;3.45;;;22.30;26.10;;;;;;6219098;23;20168;-87
2022/05/15 08:46:33;;;;;;;5.20;3.05;;;23.40;26.20;;;;;;6206552;23;20196;-77
2022/05/15 08:49:07;;;;;;;5.63;2.95;;;25.50;18.40;;;;;;6207294;23;20173;-79
2022/05/15 08:51:35;;;;;;;4.15;2.50;;;27.40;15.40;;;;;;6219813;23;20228;-76
2022/05/15 08:54:17;;;;;;;4.90;2.50;;;27.70;15.10;;;;;;6217278;23;20157;-78
2022/05/15 08:56:52;;;;;;;7.18;3.03;;;29.20;11.80;;;;;;6218651;23;20203;-81
2022/05/15 08:59:23;;;;;;;4.13;2.78;;;30.20;10.10;;;;;;6219945;23;20176;-83
2022/05/15 09:01:54;;;;;;;3.55;2.90;;;31.10;8.10;;;;;;6219473;23;20158;-80
2022/05/15 09:04:22;;;;;;;4.20;3.30;;;31.80;7.90;;;;;;6218945;23;20210;-82
2022/05/15 09:07:10;;;;;;;5.57;3.10;;;31.50;7.70;;;;;;6221552;23;20190;-81
2022/05/15 09:09:48;;;;;;;3.33;2.78;;;31.60;6.70;;;;;;6217022;23;20169;-81
2022/05/15 09:12:17;;;;;;;8.32;2.70;;;32.00;4.00;;;;;;6216098;23;20162;-80
2022/05/15 09:15:12;;;;;;;4.45;2.60;;;32.10;4.00;;;;;;6216660;23;20161;-81
2022/05/15 09:17:45;;;;;;;2.88;2.45;;;32.40;3.20;;;;;;6216027;23;20200;-81
2022/05/15 09:20:29;;;;;;;3.53;2.85;;;32.60;2.30;;;;;;6217067;23;20162;-81
2022/05/15 09:23:02;;;;;;;4.53;3.00;;;32.70;4.00;;;;;;6218256;23;20165;-81
2022/05/15 09:25:41;;;;;;;6.75;4.15;;;33.30;4.30;;;;;;6221052;23;20168;-80
2022/05/15 09:28:10;;;;;;;4.97;4.13;;;32.80;6.90;;;;;;6218471;23;20189;-80
2022/05/15 09:30:48;;;;;;;5.28;3.95;;;32.60;7.80;;;;;;6217348;23;20236;-82
2022/05/15 09:33:29;;;;;;;3.85;3.50;;;31.90;8.70;;;;;;6219239;23;20633;-82
2022/05/15 09:36:23;;;;;;;4.97;3.80;;;32.00;8.00;;;;;;6220555;23;20158;-82
2022/05/15 09:39:08;;;;;;;5.43;4.32;;;31.90;7.90;;;;;;6230320;23;20157;-84
2022/05/15 09:44:51;;;;;;;4.40;4.00;;;33.00;8.50;;;;;;6232582;23;20156;-83
2022/05/15 09:47:29;;;;;;;5.38;3.80;;;32.50;8.30;;;;;;6219616;23;20184;-83
2022/05/15 09:49:55;;;;;;;4.80;4.30;;;32.30;9.60;;;;;;6219920;23;20168;-82
2022/05/15 09:52:37;;;;;;;5.68;4.05;;;33.20;8.60;;;;;;6217983;23;20176;-82
2022/05/15 09:55:24;;;;;;;4.70;4.20;;;32.70;8.30;;;;;;6216486;23;20610;-82
2022/05/15 09:58:03;;;;;;;4.47;3.75;;;32.30;9.30;;;;;;6217489;23;20161;-83
2022/05/15 10:00:38;;;;;;;5.20;3.88;;;32.70;9.30;;;;;;6217062;23;20158;-83
2022/05/15 10:03:18;;;;;;;7.28;3.72;;;32.30;9.20;;;;;;6217210;23;20207;-83
2022/05/15 10:06:01;;;;;;;5.70;3.63;;;32.30;9.70;;;;;;6216231;23;20158;-85
2022/05/15 10:08:34;;;;;;;4.35;3.72;;;32.20;9.40;;;;;;6215621;23;20189;-82
2022/05/15 10:11:06;;;;;;;5.05;3.70;;;31.90;9.60;;;;;;6216378;23;20484;-84
2022/05/15 10:13:44;;;;;;;4.45;3.78;;;31.50;11.60;;;;;;6216722;23;20161;-83
2022/05/15 10:16:30;;;;;;;3.90;3.50;;;31.20;11.50;;;;;;6216944;23;20161;-83
2022/05/15 10:19:01;;;;;;;8.50;7.22;;;31.40;10.90;;;;;;6216414;23;20161;-83
2022/05/15 10:21:48;;;;;;;5.97;3.70;;;31.90;11.70;;;;;;6216358;23;20162;-83
2022/05/15 10:24:42;;;;;;;5.03;4.13;;;31.80;9.80;;;;;;6215350;23;20166;-84
2022/05/15 10:27:15;;;;;;;6.05;5.43;;;31.60;11.70;;;;;;6217030;23;20209;-81
2022/05/15 10:30:11;;;;;;;3.67;3.15;;;31.40;12.20;;;;;;6217254;23;20598;-82
2022/05/15 10:32:42;;;;;;;5.07;3.70;;;31.90;10.30;;;;;;6216245;23;20169;-82
2022/05/15 10:35:16;;;;;;;8.30;4.18;;;31.80;9.60;;;;;;6216287;23;20158;-81
2022/05/15 10:37:58;;;;;;;7.47;3.97;;;31.80;11.20;;;;;;6217274;23;20165;-81
2022/05/15 10:40:42;;;;;;;4.72;3.50;;;31.30;9.60;;;;;;6216765;23;20177;-83
2022/05/15 10:43:24;;;;;;;4.18;3.30;;;30.70;11.70;;;;;;6216331;23;20180;-82
2022/05/15 10:45:57;;;;;;;5.60;3.92;;;30.30;12.70;;;;;;6218431;23;20162;-80
2022/05/15 10:48:51;;;;;;;4.07;3.60;;;30.60;11.70;;;;;;6218078;23;20189;-81
2022/05/15 10:51:34;;;;;;;5.90;3.95;;;30.80;10.10;;;;;;6214644;23;20174;-80
2022/05/15 10:57:38;;;;;;;7.22;4.95;;;29.90;12.90;;;;;;6228198;23;20249;-83
2022/05/15 11:00:33;;;;;;;5.03;3.70;;;30.40;12.20;;;;;;6105403;23;20617;-80
2022/05/15 11:03:34;;;;;;;5.93;3.42;;;30.20;12.80;;;;;;6102762;23;20176;-85
2022/05/15 11:06:42;;;;;;;5.13;4.05;;;29.20;13.40;;;;;;5980970;24;20175;-82
2022/05/15 11:09:37;;;;;;;5.53;3.63;;;28.30;15.80;;;;;;5981014;24;20175;-83
2022/05/15 11:16:00;;;;;;;5.70;2.97;;;27.20;15.20;;;;;;5980657;24;20174;-82
2022/05/15 11:18:41;;;;;;;3.40;2.95;;;26.80;16.50;;;;;;5980825;24;20167;-86
2022/05/15 11:21:16;;;;;;;6.07;2.80;;;26.50;17.80;;;;;;5981361;24;20202;-84
2022/05/15 11:24:17;;;;;;;5.15;2.90;;;26.10;17.90;;;;;;5985398;24;20175;-86
2022/05/15 11:26:49;;;;;;;5.95;2.70;;;25.60;19.90;;;;;;5983205;24;20168;-86
2022/05/15 11:29:31;;;;;;;8.30;3.20;;;25.50;19.60;;;;;;5985298;24;20527;-86
2022/05/15 11:31:59;;;;;;;6.20;3.20;;;25.50;20.00;;;;;;5994589;24;20171;-87
2022/05/15 11:35:05;;;;;;;5.63;3.03;;;25.30;18.90;;;;;;5996035;24;20178;-86
2022/05/15 11:38:00;;;;;;;3.97;2.75;;;25.30;20.30;;;;;;6109186;23;20256;-86
2022/05/15 11:40:37;;;;;;;3.25;2.60;;;25.30;22.40;;;;;;6109219;23;20177;-84
2022/05/15 11:43:58;;;;;;;6.18;3.40;;;25.50;19.20;;;;;;6199047;23;20644;-85
2022/05/15 11:46:57;;;;;;;5.20;3.72;;;25.50;18.40;;;;;;6232078;23;20162;-90
2022/05/15 11:49:37;;;;;;;4.90;2.97;;;25.20;20.40;;;;;;6224789;23;20391;-90
2022/05/15 11:52:30;;;;;;;4.95;2.90;;;25.10;20.00;;;;;;6224403;23;20811;-87
2022/05/15 11:55:31;;;;;;;5.80;3.10;;;25.20;19.60;;;;;;6218568;23;20165;-85
2022/05/15 11:58:34;;;;;;;3.72;3.00;;;25.20;19.60;;;;;;6104835;23;20611;-85
2022/05/15 12:01:39;;;;;;;3.58;2.80;;;25.20;19.50;;;;;;6015492;23;20182;-85
2022/05/15 12:04:08;;;;;;;4.55;3.10;;;25.20;19.40;;;;;;6016683;23;20182;-88
2022/05/15 12:06:48;;;;;;;4.45;2.53;;;25.20;20.00;;;;;;6018917;23;20242;-88
2022/05/15 12:09:29;;;;;;;4.50;2.70;;;25.00;20.60;;;;;;6016386;23;20188;-86
2022/05/15 12:12:05;;;;;;;5.25;2.72;;;25.30;19.10;;;;;;6015021;23;20179;-89
2022/05/15 12:14:35;;;;;;;3.20;2.60;;;25.00;21.20;;;;;;5968178;23;20174;-88
2022/05/15 12:17:25;;;;;;;6.20;2.67;;;24.90;20.20;;;;;;5986715;23;20234;-89
2022/05/15 12:20:03;;;;;;;3.50;2.75;;;25.10;18.80;;;;;;6013471;23;20171;-89
2022/05/15 12:22:38;;;;;;;5.03;2.38;;;25.10;18.20;;;;;;6016406;23;20254;-87
2022/05/15 12:25:14;;;;;;;4.22;2.70;;;25.10;19.50;;;;;;5991407;23;20182;-87
2022/05/15 12:28:50;;;;;;;5.57;3.28;;;24.80;18.90;;;;;;6010639;23;21038;-90
2022/05/15 12:30:53;;;;;;;8.30;2.58;;;25.00;18.40;;;;;;6017044;23;20241;-89
2022/05/15 12:33:25;;;;;;;6.43;3.78;;;25.20;18.60;;;;;;6020091;23;20174;-88
2022/05/15 12:36:11;;;;;;;6.63;2.90;;;25.00;18.90;;;;;;6103939;23;20684;-92
2022/05/15 12:39:13;;;;;;;6.68;2.72;;;25.10;19.30;;;;;;6227946;23;20174;-89
2022/05/15 12:41:45;;;;;;;4.43;2.78;;;25.00;18.00;;;;;;6225511;23;20215;-89
2022/05/15 12:44:13;;;;;;;5.18;2.65;;;25.10;18.20;;;;;;6227631;23;20170;-89
2022/05/15 12:46:56;;;;;;;2.90;2.50;;;25.20;19.40;;;;;;6227677;23;20197;-89
2022/05/15 12:49:31;;;;;;;4.25;2.63;;;25.20;17.90;;;;;;6227741;23;20180;-89
2022/05/15 12:52:13;;;;;;;5.15;2.40;;;25.20;18.90;;;;;;6226951;23;20216;-90
2022/05/15 12:54:42;;;;;;;4.78;2.92;;;25.10;18.70;;;;;;6227203;23;20169;-89
2022/05/15 12:57:13;;;;;;;4.45;2.75;;;25.00;18.30;;;;;;6228108;23;20214;-89
2022/05/15 12:59:42;;;;;;;5.68;2.55;;;25.00;18.50;;;;;;6227083;23;20642;-88
2022/05/15 13:02:47;;;;;;;4.03;2.92;;;24.90;18.10;;;;;;6226099;23;20172;-89
2022/05/15 13:05:23;;;;;;;3.67;2.63;;;24.90;19.30;;;;;;6227105;23;20173;-89
2022/05/15 13:07:56;;;;;;;4.50;2.60;;;25.00;17.90;;;;;;6227151;23;20185;-90
2022/05/15 13:10:25;;;;;;;5.63;2.67;;;25.10;17.70;;;;;;6228806;23;20162;-89
2022/05/15 13:12:56;;;;;;;5.53;2.75;;;25.10;18.60;;;;;;6225271;23;20217;-89
2022/05/15 13:15:36;;;;;;;4.20;2.95;;;25.20;17.60;;;;;;6226889;23;20158;-88
2022/05/15 13:18:33;;;;;;;4.40;2.90;;;25.10;17.10;;;;;;6226533;23;20176;-89
2022/05/15 13:21:03;;;;;;;3.00;2.50;;;24.90;17.40;;;;;;6227521;23;20173;-89
2022/05/15 13:23:35;;;;;;;3.67;2.70;;;24.80;18.40;;;;;;6227265;23;20498;-89
2022/05/15 13:26:04;;;;;;;5.90;2.50;;;24.90;18.50;;;;;;6226154;23;20173;-88
2022/05/15 13:28:36;;;;;;;4.15;3.00;;;25.00;17.70;;;;;;6226107;23;20185;-89
2022/05/15 13:31:04;;;;;;;5.47;2.90;;;25.10;18.00;;;;;;6225393;23;20170;-89
2022/05/15 13:33:34;;;;;;;5.70;2.80;;;25.10;17.20;;;;;;6224117;23;20226;-89
2022/05/15 13:36:05;;;;;;;4.75;2.60;;;25.30;17.00;;;;;;6225971;23;20162;-89
2022/05/15 13:44:32;;;;;;;5.03;2.20;;;25.00;17.50;;;;;;6228426;23;20165;-88
2022/05/15 13:47:02;;;;;;;5.50;2.58;;;25.00;17.50;;;;;;6227981;23;20158;-89
2022/05/15 13:49:39;;;;;;;5.05;2.45;;;24.80;18.40;;;;;;6225003;23;20204;-88
2022/05/15 13:52:25;;;;;;;3.83;2.35;;;24.90;18.00;;;;;;6227687;23;20217;-89
2022/05/15 13:54:52;;;;;;;4.75;2.70;;;25.00;17.70;;;;;;6227186;23;20254;-88
2022/05/15 13:57:22;;;;;;;4.38;2.42;;;24.90;16.60;;;;;;6227676;23;20216;-89
2022/05/15 14:00:25;;;;;;;3.40;2.25;;;24.70;16.70;;;;;;6229034;23;20257;-89
2022/05/15 14:03:27;;;;;;;4.85;2.45;;;24.80;16.80;;;;;;6226357;23;20174;-88
2022/05/15 14:06:16;;;;;;;4.88;2.20;;;24.70;16.90;;;;;;6228680;23;20373;-89
2022/05/15 14:09:07;;;;;;;3.67;2.25;;;24.70;16.70;;;;;;6228041;23;20269;-88
2022/05/15 14:11:57;;;;;;;4.43;2.75;;;24.70;17.30;;;;;;6226342;23;20169;-89
2022/05/15 14:14:48;;;;;;;4.47;2.60;;;24.70;17.80;;;;;;6216630;23;20205;-87
2022/05/15 14:17:19;;;;;;;3.50;2.17;;;24.80;16.80;;;;;;6223755;23;20162;-91
2022/05/15 14:20:24;;;;;;;5.30;2.33;;;24.70;16.40;;;;;;6225640;23;20330;-91
2022/05/15 14:23:08;;;;;;;2.63;2.30;;;24.70;17.60;;;;;;6222389;23;20174;-94
2022/05/15 14:25:43;;;;;;;3.95;2.10;;;24.50;16.00;;;;;;6224110;23;20908;-94
2022/05/15 15:39:28;;;;;;;4.30;2.40;;;24.10;15.60;;;;;;5822125;24;20639;-90
2022/05/15 15:42:16;;;;;;;2.95;2.10;;;24.00;15.40;;;;;;5821112;24;20209;-91
2022/05/15 15:44:44;;;;;;;3.03;2.65;;;24.00;15.70;;;;;;5847140;24;20190;-90
2022/05/15 15:47:22;;;;;;;3.08;2.30;;;24.00;16.80;;;;;;5851261;24;20318;-90
2022/05/15 15:49:49;;;;;;;3.78;2.45;;;24.00;16.30;;;;;;5874502;24;20201;-89
2022/05/15 15:52:30;;;;;;;3.85;1.98;;;24.00;15.90;;;;;;5870894;24;20192;-91
2022/05/15 15:54:57;;;;;;;4.50;2.40;;;23.90;15.30;;;;;;5871556;24;20189;-90
2022/05/15 15:57:28;;;;;;;4.97;2.08;;;23.90;15.60;;;;;;5871379;24;20170;-89
2022/05/15 15:59:55;;;;;;;3.13;2.42;;;23.80;16.80;;;;;;5879020;24;20213;-89
2022/05/15 16:02:34;;;;;;;5.80;2.35;;;23.80;16.70;;;;;;5901831;24;20208;-92
2022/05/15 16:05:34;;;;;;;2.95;2.10;;;23.80;16.60;;;;;;6067284;23;20184;-92
2022/05/15 16:08:48;;;;;;;2.95;2.40;;;23.80;16.80;;;;;;6113927;23;20498;-86
2022/05/15 16:17:53;;;;;;;2.67;2.17;;;23.60;16.90;;;;;;6107952;23;20255;-87
2022/05/15 16:20:29;;;;;;;3.03;2.00;;;23.50;18.70;;;;;;6108613;23;20232;-87
2022/05/15 16:23:33;;;;;;;4.20;2.13;;;23.40;17.20;;;;;;6107529;23;20176;-88
2022/05/15 17:46:58;;;;;;;2.75;1.92;;;22.20;17.60;;;;;;6082002;23;20229;-89
2022/05/15 19:15:54;;;;;;;6.45;3.10;;;19.40;29.70;;;;;;5103416;27;20919;-90
2022/05/15 19:18:31;;;;;;;4.30;3.10;;;19.10;31.30;;;;;;5073561;28;20288;-90
2022/05/15 19:21:09;;;;;;;3.70;2.90;;;19.10;31.40;;;;;;5077913;28;20211;-90
2022/05/15 19:23:40;;;;;;;6.95;3.30;;;19.00;31.20;;;;;;5091016;28;20274;-88
2022/05/15 19:26:10;;;;;;;4.38;3.45;;;18.90;31.20;;;;;;5082634;28;20237;-89
2022/05/15 19:28:58;;;;;;;5.78;3.20;;;18.80;32.10;;;;;;5078898;28;20565;-89
2022/05/15 19:35:21;;;;;;;8.98;4.60;;;18.70;33.50;;;;;;5081029;28;20323;-89
2022/05/15 19:37:58;;;;;;;5.03;3.10;;;18.60;34.70;;;;;;5087872;28;20277;-89
2022/05/15 19:40:46;;;;;;;6.53;3.35;;;18.60;37.10;;;;;;5083317;28;20201;-89
2022/05/15 19:50:07;;;;;;;4.50;3.38;;;18.40;38.60;;;;;;5079217;28;20417;-89
2022/05/15 19:53:06;;;;;;;5.78;3.35;;;18.30;39.90;;;;;;5054505;28;20349;-89
2022/05/15 19:56:16;;;;;;;6.55;3.53;;;18.20;40.50;;;;;;5046953;28;20293;-89
2022/05/15 20:02:40;;;;;;;8.90;3.85;;;18.10;43.10;;;;;;5047337;28;20205;-89
2022/05/15 20:15:34;;;;;;;5.82;3.88;;;17.80;45.60;;;;;;5073072;28;20265;-89
2022/05/15 20:21:16;;;;;;;8.30;4.20;;;17.70;47.30;;;;;;5011149;28;20215;-89
2022/05/15 20:23:53;;;;;;;4.22;3.78;;;17.70;48.80;;;;;;5026617;28;20227;-89
2022/05/15 20:29:05;;;;;;;5.93;3.90;;;17.80;50.00;;;;;;5020192;28;20192;-90
2022/05/15 20:31:43;;;;;;;6.93;4.05;;;17.70;49.40;;;;;;5025150;28;20681;-89
2022/05/15 20:34:40;;;;;;;6.00;4.15;;;17.60;50.60;;;;;;5022396;28;20254;-89
2022/05/15 20:44:37;;;;;;;7.22;4.05;;;17.40;53.30;;;;;;5003143;28;20230;-88
2022/05/15 20:47:46;;;;;;;6.50;3.72;;;17.40;52.40;;;;;;5025464;28;20242;-88
2022/05/15 20:57:32;;;;;;;5.47;3.85;;;17.20;53.40;;;;;;5069065;28;20233;-88
2022/05/15 21:03:29;;;;;;;6.78;4.20;;;17.30;53.70;;;;;;5045851;28;20207;-88
2022/05/15 21:12:22;;;;;;;5.38;3.47;;;17.00;54.50;;;;;;5056373;28;20206;-88
2022/05/15 21:15:43;;;;;;;6.90;4.03;;;16.90;56.50;;;;;;5063725;28;20260;-87
2022/05/15 21:18:29;;;;;;;6.57;3.70;;;16.80;55.30;;;;;;5061040;28;20198;-86
2022/05/15 21:24:44;;;;;;;3.85;3.45;;;16.70;58.30;;;;;;4997605;28;20227;-87
2022/05/15 21:30:37;;;;;;;5.60;3.53;;;16.90;57.90;;;;;;5067794;28;20205;-86
2022/05/15 21:33:52;;;;;;;4.47;3.60;;;16.80;59.00;;;;;;5077964;28;20197;-86
2022/05/15 21:36:19;;;;;;;4.93;3.42;;;16.60;58.40;;;;;;5024073;28;20221;-86
2022/05/15 21:45:27;;;;;;;6.05;3.60;;;16.50;59.60;;;;;;5070856;28;20221;-86
2022/05/15 21:48:24;;;;;;;4.38;3.63;;;16.40;58.80;;;;;;5005965;28;20641;-87
2022/05/15 21:50:51;;;;;;;7.15;3.88;;;16.30;58.40;;;;;;5062864;28;20274;-86
2022/05/15 22:11:34;;;;;;;5.50;3.50;;;15.80;67.50;;;;;;4948959;29;20269;-86
2022/05/15 22:14:24;;;;;;;9.07;4.30;;;15.80;67.50;;;;;;4872165;29;20240;-88
2022/05/15 22:17:09;;;;;;;5.25;4.03;;;15.80;67.80;;;;;;4941246;29;20238;-86
2022/05/15 22:19:37;;;;;;;7.47;4.32;;;15.70;68.60;;;;;;4989297;28;20218;-86
2022/05/15 22:26:07;;;;;;;6.32;4.57;;;15.70;70.00;;;;;;4987372;28;20224;-86
2022/05/15 22:28:52;;;;;;;5.32;4.72;;;15.80;70.40;;;;;;4984149;28;20200;-86
2022/05/15 22:31:33;;;;;;;6.43;4.35;;;15.80;71.50;;;;;;4978422;28;20320;-87
2022/05/15 22:34:13;;;;;;;6.97;4.30;;;15.80;71.70;;;;;;4989690;28;20235;-86
2022/05/15 22:37:05;;;;;;;8.23;4.60;;;15.70;72.10;;;;;;5060661;28;20241;-86
2022/05/15 22:40:16;;;;;;;6.60;4.28;;;15.70;71.90;;;;;;5061429;28;20233;-86
2022/05/15 22:52:35;;;;;;;8.38;4.53;;;15.50;74.60;;;;;;5061245;28;20300;-88
2022/05/15 22:57:56;;;;;;;5.63;4.20;;;15.60;75.20;;;;;;5012903;28;20223;-86
2022/05/15 23:00:47;;;;;;;5.15;3.90;;;15.50;73.90;;;;;;5048228;28;20206;-87
2022/05/15 23:03:18;;;;;;;9.07;4.45;;;15.50;75.00;;;;;;5063782;28;20205;-86
2022/05/15 23:08:38;;;;;;;6.00;4.30;;;15.50;76.40;;;;;;5024700;28;20246;-86
2022/05/15 23:11:17;;;;;;;5.38;4.20;;;15.60;77.70;;;;;;5010237;28;20227;-86
2022/05/15 23:14:17;;;;;;;6.50;4.07;;;15.60;77.70;;;;;;5027083;28;20203;-86
2022/05/15 23:17:27;;;;;;;13.10;4.53;;;15.60;77.50;;;;;;5019833;28;20199;-86
2022/05/15 23:20:46;;;;;;;6.32;4.25;;;15.70;77.80;;;;;;4991306;28;20203;-86
2022/05/15 23:23:48;;;;;;;5.03;3.88;;;15.70;77.80;;;;;;5016906;28;20203;-86
2022/05/15 23:29:51;;;;;;;6.68;4.10;;;15.50;75.80;;;;;;5024439;28;20234;-87
2022/05/15 23:32:45;;;;;;;6.68;4.28;;;15.40;76.70;;;;;;5019929;28;20204;-86
2022/05/15 23:38:53;;;;;;;7.38;4.85;;;15.30;77.50;;;;;;5023571;28;20238;-86
2022/05/15 23:42:03;;;;;;;6.75;4.53;;;15.30;78.80;;;;;;5017945;28;20222;-86
2022/05/15 23:44:42;;;;;;;7.63;4.63;;;15.20;79.60;;;;;;5025853;28;20226;-85
